Time;durP1;ratioP1;P1;durP2;ratioP2;P2;SDS_P1;SDS_P2;PMS_P1;PMS_P2;Temp;Humidity;BMP_temperature;BMP_pressure;BME280_temperature;BME280_humidity;BME280_pressure;Samples;Min_cycle;Max_cycle;Signal;HPM_P1;HPM_P2
2021/07/23 00:00:00;;;;;;;18.83;9.98;;;;;;;;;;5054109;28;20028;-63
2021/07/23 00:02:26;;;;;;;19.38;11.00;;;;;;;;;;5054174;28;20025;-63
2021/07/23 00:04:52;;;;;;;19.67;10.73;;;;;;;;;;5054225;28;20020;-64
2021/07/23 00:07:18;;;;;;;19.15;9.63;;;;;;;;;;5053947;28;20024;-63
2021/07/23 00:09:44;;;;;;;19.70;10.52;;;;;;;;;;5054076;28;20095;-64
2021/07/23 00:12:10;;;;;;;17.90;10.07;;;;;;;;;;5054187;28;20025;-63
2021/07/23 00:14:36;;;;;;;18.45;10.15;;;;;;;;;;5072274;28;20024;-63
2021/07/23 00:17:02;;;;;;;18.40;9.85;;;;;;;;;;5072282;28;20127;-63
2021/07/23 00:19:28;;;;;;;19.27;10.43;;;;;;;;;;5072329;28;20054;-63
2021/07/23 00:21:54;;;;;;;18.65;10.52;;;;;;;;;;5054531;28;20048;-63
2021/07/23 00:24:20;;;;;;;17.77;10.20;;;;;;;;;;5054275;28;20071;-64
2021/07/23 00:26:52;;;;;;;26.38;10.63;;;;;;;;;;5054114;28;20024;-64
2021/07/23 00:29:19;;;;;;;20.85;10.52;;;;;;;;;;5054400;28;20361;-63
2021/07/23 00:31:45;;;;;;;20.63;10.05;;;;;;;;;;5054057;28;20032;-66
2021/07/23 00:34:14;;;;;;;20.00;10.15;;;;;;;;;;5072250;28;20111;-63
2021/07/23 00:36:40;;;;;;;17.95;10.13;;;;;;;;;;5071718;28;20063;-63
2021/07/23 00:39:06;;;;;;;18.52;10.73;;;;;;;;;;5054000;28;20029;-63
2021/07/23 00:41:32;;;;;;;18.50;10.27;;;;;;;;;;5054497;28;20032;-63
2021/07/23 00:43:58;;;;;;;19.88;10.85;;;;;;;;;;5071884;28;20057;-63
2021/07/23 00:46:27;;;;;;;17.17;9.88;;;;;;;;;;5074789;28;20056;-63
2021/07/23 00:48:53;;;;;;;18.77;9.88;;;;;;;;;;5075738;28;20028;-64
2021/07/23 00:51:19;;;;;;;19.05;9.98;;;;;;;;;;5057976;28;20029;-63
2021/07/23 00:53:45;;;;;;;21.90;11.88;;;;;;;;;;5057016;28;20056;-63
2021/07/23 00:56:11;;;;;;;18.10;10.27;;;;;;;;;;5075115;28;20052;-63
2021/07/23 00:58:37;;;;;;;20.55;10.30;;;;;;;;;;5057268;28;20436;-64
2021/07/23 01:01:03;;;;;;;20.75;10.40;;;;;;;;;;5056917;28;20029;-64
2021/07/23 01:03:29;;;;;;;19.98;9.93;;;;;;;;;;5056661;28;20476;-64
2021/07/23 01:05:56;;;;;;;19.38;10.20;;;;;;;;;;5056681;28;20446;-64
2021/07/23 01:08:22;;;;;;;18.80;10.57;;;;;;;;;;5056736;28;20385;-64
2021/07/23 01:10:48;;;;;;;20.30;11.75;;;;;;;;;;5056821;28;20074;-64
2021/07/23 01:13:14;;;;;;;20.50;10.57;;;;;;;;;;5056864;28;20106;-64
2021/07/23 01:15:40;;;;;;;18.95;10.10;;;;;;;;;;5074206;28;20130;-64
2021/07/23 01:18:06;;;;;;;19.42;10.68;;;;;;;;;;5074878;28;20020;-65
2021/07/23 01:20:33;;;;;;;20.67;11.15;;;;;;;;;;5075125;28;20086;-64
2021/07/23 01:23:00;;;;;;;17.83;9.77;;;;;;;;;;5056747;28;20032;-64
2021/07/23 01:25:27;;;;;;;21.90;10.23;;;;;;;;;;5056819;28;20020;-65
2021/07/23 01:27:54;;;;;;;18.52;9.85;;;;;;;;;;5075068;28;20411;-63
2021/07/23 01:30:22;;;;;;;19.38;9.90;;;;;;;;;;5075168;28;20436;-65
2021/07/23 01:32:48;;;;;;;18.42;10.20;;;;;;;;;;5074724;28;20484;-64
2021/07/23 01:35:14;;;;;;;18.95;10.85;;;;;;;;;;5056780;28;20490;-65
2021/07/23 01:37:40;;;;;;;18.55;10.23;;;;;;;;;;5056779;28;20025;-65
2021/07/23 01:40:07;;;;;;;19.50;10.88;;;;;;;;;;5074892;28;20097;-64
2021/07/23 01:42:34;;;;;;;20.10;10.32;;;;;;;;;;5075020;28;20025;-65
2021/07/23 01:44:59;;;;;;;18.52;9.57;;;;;;;;;;5075400;28;20020;-64
2021/07/23 01:47:25;;;;;;;19.45;10.00;;;;;;;;;;5056990;28;20021;-65
2021/07/23 01:49:51;;;;;;;18.65;10.50;;;;;;;;;;5074730;28;20396;-65
2021/07/23 01:52:18;;;;;;;19.13;10.07;;;;;;;;;;5074142;28;20050;-64
2021/07/23 01:54:44;;;;;;;18.65;11.30;;;;;;;;;;5074448;28;20025;-65
2021/07/23 01:57:10;;;;;;;19.25;9.70;;;;;;;;;;5056138;28;20028;-64
2021/07/23 01:59:36;;;;;;;20.30;10.68;;;;;;;;;;5074526;28;20020;-65
2021/07/23 02:02:02;;;;;;;18.35;9.93;;;;;;;;;;5056747;28;20460;-64
2021/07/23 02:04:28;;;;;;;19.92;11.30;;;;;;;;;;5056417;28;20032;-64
2021/07/23 02:06:54;;;;;;;19.77;10.32;;;;;;;;;;5074137;28;20024;-64
2021/07/23 02:09:20;;;;;;;19.70;10.52;;;;;;;;;;5056450;28;20021;-64
2021/07/23 02:11:46;;;;;;;18.85;10.10;;;;;;;;;;5056407;28;20025;-64
2021/07/23 02:14:12;;;;;;;18.70;10.52;;;;;;;;;;5056436;28;20029;-65
2021/07/23 02:16:38;;;;;;;19.73;11.00;;;;;;;;;;5056208;28;20103;-64
2021/07/23 02:19:06;;;;;;;21.30;10.35;;;;;;;;;;5056444;28;20024;-65
2021/07/23 02:21:34;;;;;;;19.25;9.98;;;;;;;;;;5056133;28;20040;-64
2021/07/23 02:24:00;;;;;;;18.08;9.95;;;;;;;;;;5055914;28;20029;-65
2021/07/23 02:26:26;;;;;;;21.45;11.20;;;;;;;;;;5073871;28;20021;-64
2021/07/23 02:28:52;;;;;;;20.88;12.00;;;;;;;;;;5073991;28;20146;-65
2021/07/23 02:31:18;;;;;;;18.85;11.13;;;;;;;;;;5073773;28;20099;-64
2021/07/23 02:33:44;;;;;;;19.88;10.68;;;;;;;;;;5074879;23;20113;-64
2021/07/23 02:36:10;;;;;;;18.85;10.85;;;;;;;;;;5072454;28;20117;-64
2021/07/23 02:38:36;;;;;;;19.15;10.40;;;;;;;;;;5072826;28;20024;-65
2021/07/23 02:41:02;;;;;;;22.40;12.52;;;;;;;;;;5073732;28;20020;-64
2021/07/23 02:43:28;;;;;;;22.67;11.68;;;;;;;;;;5072186;28;20032;-64
2021/07/23 02:45:54;;;;;;;19.63;11.07;;;;;;;;;;5073414;28;20043;-63
2021/07/23 02:48:20;;;;;;;17.95;10.77;;;;;;;;;;5073122;28;20473;-65
2021/07/23 02:50:46;;;;;;;18.13;9.80;;;;;;;;;;5073706;28;20027;-65
2021/07/23 02:53:12;;;;;;;21.98;11.65;;;;;;;;;;5072150;28;20040;-65
2021/07/23 02:55:39;;;;;;;22.13;12.35;;;;;;;;;;5073442;28;20024;-65
2021/07/23 02:58:05;;;;;;;21.85;12.93;;;;;;;;;;5072103;28;20151;-65
2021/07/23 03:00:31;;;;;;;21.30;12.30;;;;;;;;;;5073481;28;20020;-64
2021/07/23 03:02:57;;;;;;;24.90;11.95;;;;;;;;;;5072092;28;20063;-64
2021/07/23 03:05:23;;;;;;;20.20;11.45;;;;;;;;;;5073204;28;20017;-63
2021/07/23 03:07:53;;;;;;;20.80;12.10;;;;;;;;;;5072780;28;20070;-64
2021/07/23 03:10:19;;;;;;;20.55;11.93;;;;;;;;;;5073334;28;20025;-64
2021/07/23 03:12:44;;;;;;;20.85;11.90;;;;;;;;;;5072111;28;20024;-66
2021/07/23 03:15:11;;;;;;;21.38;12.93;;;;;;;;;;5071791;28;20025;-64
2021/07/23 03:17:37;;;;;;;21.13;11.52;;;;;;;;;;5073113;28;20028;-65
2021/07/23 03:20:03;;;;;;;22.00;11.90;;;;;;;;;;5073221;28;20480;-65
2021/07/23 03:22:29;;;;;;;23.73;12.50;;;;;;;;;;5072834;28;20029;-64
2021/07/23 03:24:56;;;;;;;20.02;11.95;;;;;;;;;;5072653;28;20024;-64
2021/07/23 03:27:22;;;;;;;23.33;11.90;;;;;;;;;;5071216;28;20024;-64
2021/07/23 03:29:48;;;;;;;20.55;11.70;;;;;;;;;;5073064;28;20031;-64
2021/07/23 03:32:14;;;;;;;22.50;11.93;;;;;;;;;;5071816;28;20021;-64
2021/07/23 03:34:40;;;;;;;23.80;11.90;;;;;;;;;;5071357;28;20499;-64
2021/07/23 03:37:06;;;;;;;20.55;11.02;;;;;;;;;;5071429;28;20024;-64
2021/07/23 03:39:32;;;;;;;20.90;12.57;;;;;;;;;;5072427;28;20052;-64
2021/07/23 03:41:58;;;;;;;19.05;11.27;;;;;;;;;;5071155;28;20017;-64
2021/07/23 03:44:24;;;;;;;23.38;11.82;;;;;;;;;;5072465;28;20107;-64
2021/07/23 03:46:50;;;;;;;22.35;12.07;;;;;;;;;;5071285;28;20388;-64
2021/07/23 03:49:16;;;;;;;25.15;13.05;;;;;;;;;;5071456;28;20031;-64
2021/07/23 03:51:42;;;;;;;21.58;11.55;;;;;;;;;;5072631;28;20021;-65
2021/07/23 03:54:08;;;;;;;23.48;12.32;;;;;;;;;;5071665;28;20078;-63
2021/07/23 03:56:34;;;;;;;23.40;11.88;;;;;;;;;;5072324;28;20024;-65
2021/07/23 03:59:00;;;;;;;22.33;12.18;;;;;;;;;;5072451;28;20027;-64
2021/07/23 04:01:26;;;;;;;21.23;11.18;;;;;;;;;;5072488;28;20392;-64
2021/07/23 04:03:52;;;;;;;22.65;11.60;;;;;;;;;;5071070;28;20028;-64
2021/07/23 04:06:18;;;;;;;23.25;12.68;;;;;;;;;;5071893;28;20093;-64
2021/07/23 04:08:44;;;;;;;22.67;11.57;;;;;;;;;;5070984;28;20477;-65
2021/07/23 04:11:14;;;;;;;25.17;12.30;;;;;;;;;;5070820;28;20021;-65
2021/07/23 04:13:41;;;;;;;22.38;12.43;;;;;;;;;;5071019;28;20119;-62
2021/07/23 04:16:07;;;;;;;22.00;12.13;;;;;;;;;;5072248;28;20031;-63
2021/07/23 04:18:33;;;;;;;22.70;11.73;;;;;;;;;;5072325;28;20029;-63
2021/07/23 04:20:59;;;;;;;22.27;12.10;;;;;;;;;;5071234;28;20496;-63
2021/07/23 04:23:25;;;;;;;20.10;11.15;;;;;;;;;;5072017;28;20035;-62
2021/07/23 04:25:51;;;;;;;20.52;12.15;;;;;;;;;;5070652;28;20069;-63
2021/07/23 04:28:17;;;;;;;21.90;12.05;;;;;;;;;;5072198;28;20105;-63
2021/07/23 04:30:43;;;;;;;21.88;11.40;;;;;;;;;;5070960;28;20497;-63
2021/07/23 04:33:10;;;;;;;21.65;11.40;;;;;;;;;;5071983;28;20094;-63
2021/07/23 04:35:36;;;;;;;21.73;11.52;;;;;;;;;;5072141;28;20025;-63
2021/07/23 04:38:02;;;;;;;23.40;10.68;;;;;;;;;;5071309;28;20025;-63
2021/07/23 04:40:28;;;;;;;19.55;10.57;;;;;;;;;;5070977;28;20135;-62
2021/07/23 04:42:54;;;;;;;20.38;11.32;;;;;;;;;;5070488;28;20052;-63
2021/07/23 04:45:20;;;;;;;21.02;11.15;;;;;;;;;;5072056;28;20443;-63
2021/07/23 04:47:46;;;;;;;22.23;11.85;;;;;;;;;;5072079;28;20396;-62
2021/07/23 04:50:12;;;;;;;20.88;11.75;;;;;;;;;;5071835;28;20035;-63
2021/07/23 04:52:38;;;;;;;22.27;11.63;;;;;;;;;;5070546;28;20464;-63
2021/07/23 04:55:08;;;;;;;20.65;11.35;;;;;;;;;;5070512;28;20052;-63
2021/07/23 04:57:41;;;;;;;23.35;11.93;;;;;;;;;;5070466;28;20480;-63
2021/07/23 05:00:08;;;;;;;23.30;12.25;;;;;;;;;;5071920;28;20112;-62
2021/07/23 05:02:34;;;;;;;25.02;14.18;;;;;;;;;;5070254;28;20031;-62
2021/07/23 05:05:00;;;;;;;20.85;12.25;;;;;;;;;;5070212;28;20020;-63
2021/07/23 05:07:26;;;;;;;23.35;12.27;;;;;;;;;;5070363;28;20075;-62
2021/07/23 05:09:52;;;;;;;23.88;12.77;;;;;;;;;;5070509;28;20017;-60
2021/07/23 05:12:18;;;;;;;23.30;12.57;;;;;;;;;;5071642;28;20070;-64
2021/07/23 05:14:44;;;;;;;24.77;11.95;;;;;;;;;;5070872;28;20423;-62
2021/07/23 05:17:10;;;;;;;20.88;11.02;;;;;;;;;;5070296;28;20036;-62
2021/07/23 05:19:37;;;;;;;21.17;11.50;;;;;;;;;;5071794;28;20021;-63
2021/07/23 05:22:03;;;;;;;20.45;11.57;;;;;;;;;;5070198;28;20021;-63
2021/07/23 05:24:30;;;;;;;29.58;17.30;;;;;;;;;;5071602;28;20024;-63
2021/07/23 05:26:56;;;;;;;19.88;10.32;;;;;;;;;;5070206;28;20032;-62
2021/07/23 05:29:22;;;;;;;23.92;10.63;;;;;;;;;;5070066;28;20024;-63
2021/07/23 05:31:48;;;;;;;18.15;10.20;;;;;;;;;;5071961;28;20047;-63
2021/07/23 05:34:14;;;;;;;19.42;10.68;;;;;;;;;;5074715;28;20036;-63
2021/07/23 05:36:40;;;;;;;23.30;11.88;;;;;;;;;;5074722;28;20025;-64
2021/07/23 05:39:08;;;;;;;19.77;10.55;;;;;;;;;;5075316;28;20074;-63
2021/07/23 05:41:34;;;;;;;19.35;10.60;;;;;;;;;;5075044;28;20035;-63
2021/07/23 05:44:00;;;;;;;21.10;10.40;;;;;;;;;;5074545;28;20028;-63
2021/07/23 05:46:27;;;;;;;22.38;11.18;;;;;;;;;;5074452;28;20333;-63
2021/07/23 05:48:53;;;;;;;25.33;14.70;;;;;;;;;;5069632;28;20028;-68
2021/07/23 05:51:19;;;;;;;20.20;11.15;;;;;;;;;;5067465;28;20012;-66
2021/07/23 05:53:45;;;;;;;22.33;12.93;;;;;;;;;;5064237;28;20047;-67
2021/07/23 05:56:11;;;;;;;20.70;11.23;;;;;;;;;;5053790;28;20036;-68
2021/07/23 05:58:37;;;;;;;29.20;16.33;;;;;;;;;;5068905;28;20021;-67
2021/07/23 06:01:07;;;;;;;25.75;13.25;;;;;;;;;;5073535;28;20024;-68
2021/07/23 06:03:34;;;;;;;22.83;10.73;;;;;;;;;;5073247;28;20021;-69
2021/07/23 06:06:01;;;;;;;21.20;11.02;;;;;;;;;;5074030;28;20032;-69
2021/07/23 06:08:27;;;;;;;22.02;11.38;;;;;;;;;;5074510;28;20020;-68
2021/07/23 06:10:53;;;;;;;17.95;9.93;;;;;;;;;;5074646;28;20066;-67
2021/07/23 06:13:19;;;;;;;21.42;10.80;;;;;;;;;;5072894;28;20024;-67
2021/07/23 06:15:45;;;;;;;22.15;13.73;;;;;;;;;;5073145;28;20020;-68
2021/07/23 06:18:11;;;;;;;20.48;11.10;;;;;;;;;;5074508;28;20511;-67
2021/07/23 06:20:37;;;;;;;21.23;11.63;;;;;;;;;;5073030;28;20047;-69
2021/07/23 06:23:03;;;;;;;18.30;9.68;;;;;;;;;;5067880;28;20025;-68
2021/07/23 06:25:29;;;;;;;20.05;10.18;;;;;;;;;;5052926;28;20115;-64
2021/07/23 06:27:55;;;;;;;21.92;12.77;;;;;;;;;;5053701;28;20112;-65
2021/07/23 06:30:21;;;;;;;21.13;12.05;;;;;;;;;;5053881;28;20021;-65
2021/07/23 06:32:47;;;;;;;20.95;13.00;;;;;;;;;;5052239;28;20029;-65
2021/07/23 06:35:13;;;;;;;19.33;10.60;;;;;;;;;;5053354;28;20039;-64
2021/07/23 06:37:39;;;;;;;19.23;10.70;;;;;;;;;;5053526;28;20029;-65
2021/07/23 06:40:05;;;;;;;18.02;10.63;;;;;;;;;;5053687;28;20028;-65
2021/07/23 06:42:33;;;;;;;20.80;9.88;;;;;;;;;;5051203;28;20128;-65
2021/07/23 06:44:59;;;;;;;21.60;10.27;;;;;;;;;;5053374;28;20265;-65
2021/07/23 06:47:25;;;;;;;18.92;10.30;;;;;;;;;;5051817;28;20373;-66
2021/07/23 06:49:51;;;;;;;19.27;9.68;;;;;;;;;;5052005;28;20079;-63
2021/07/23 06:52:19;;;;;;;19.13;8.80;;;;;;;;;;5053310;28;20095;-65
2021/07/23 06:54:45;;;;;;;18.65;9.32;;;;;;;;;;5051577;28;20028;-65
2021/07/23 06:57:11;;;;;;;17.20;9.13;;;;;;;;;;5053003;28;20032;-65
2021/07/23 06:59:37;;;;;;;23.23;10.55;;;;;;;;;;5052933;28;20033;-65
2021/07/23 07:02:03;;;;;;;17.77;9.65;;;;;;;;;;5052859;28;20035;-65
2021/07/23 07:04:30;;;;;;;16.15;9.68;;;;;;;;;;5052955;28;20037;-65
2021/07/23 07:06:57;;;;;;;18.80;9.32;;;;;;;;;;5051636;28;20021;-66
2021/07/23 07:09:27;;;;;;;18.48;8.93;;;;;;;;;;5053084;28;20025;-65
2021/07/23 07:11:53;;;;;;;17.42;10.13;;;;;;;;;;5052995;28;20021;-65
2021/07/23 07:14:21;;;;;;;18.17;9.35;;;;;;;;;;5051674;28;20032;-65
2021/07/23 07:16:47;;;;;;;20.50;10.48;;;;;;;;;;5051181;28;20566;-65
2021/07/23 07:19:13;;;;;;;18.17;9.80;;;;;;;;;;5052049;28;20037;-65
2021/07/23 07:21:45;;;;;;;16.30;9.27;;;;;;;;;;5053004;28;20508;-65
2021/07/23 07:24:11;;;;;;;17.65;9.18;;;;;;;;;;5056836;28;20560;-65
2021/07/23 07:26:37;;;;;;;21.27;12.20;;;;;;;;;;5072406;28;20048;-65
2021/07/23 07:29:03;;;;;;;19.30;9.90;;;;;;;;;;5072496;28;20025;-67
2021/07/23 07:31:29;;;;;;;17.05;9.48;;;;;;;;;;5071241;28;20024;-67
2021/07/23 07:33:56;;;;;;;18.80;9.88;;;;;;;;;;5072232;28;20033;-69
2021/07/23 07:36:22;;;;;;;20.17;10.27;;;;;;;;;;5072498;28;20039;-68
2021/07/23 07:38:48;;;;;;;16.13;9.45;;;;;;;;;;5071027;28;20083;-67
2021/07/23 07:41:18;;;;;;;17.80;9.63;;;;;;;;;;5072142;28;20125;-68
2021/07/23 07:43:44;;;;;;;17.30;10.13;;;;;;;;;;5072100;28;20024;-67
2021/07/23 07:46:10;;;;;;;18.50;9.63;;;;;;;;;;5070918;28;20476;-68
2021/07/23 07:48:36;;;;;;;18.75;9.88;;;;;;;;;;5070972;28;20025;-68
2021/07/23 07:51:02;;;;;;;21.08;10.25;;;;;;;;;;5064645;28;20032;-68
2021/07/23 07:53:28;;;;;;;18.77;10.32;;;;;;;;;;5052177;28;20021;-68
2021/07/23 07:55:54;;;;;;;17.00;9.98;;;;;;;;;;5050595;28;20029;-67
2021/07/23 07:58:20;;;;;;;18.98;10.80;;;;;;;;;;5050652;28;20485;-68
2021/07/23 08:00:46;;;;;;;17.52;10.65;;;;;;;;;;5050969;28;20094;-66
2021/07/23 08:03:12;;;;;;;17.90;9.88;;;;;;;;;;5051935;28;20024;-67
2021/07/23 08:05:38;;;;;;;18.65;10.23;;;;;;;;;;5051748;28;20474;-67
2021/07/23 08:08:08;;;;;;;18.17;10.48;;;;;;;;;;5050559;28;20021;-68
2021/07/23 08:10:36;;;;;;;22.02;11.65;;;;;;;;;;5050794;28;20025;-68
2021/07/23 08:13:02;;;;;;;17.10;10.00;;;;;;;;;;5051851;28;20036;-68
2021/07/23 08:15:28;;;;;;;20.08;11.35;;;;;;;;;;5051817;28;20032;-67
2021/07/23 08:17:54;;;;;;;15.75;9.55;;;;;;;;;;5050868;28;20029;-67
2021/07/23 08:20:20;;;;;;;17.48;10.05;;;;;;;;;;5050546;28;20024;-67
2021/07/23 08:22:46;;;;;;;17.00;10.65;;;;;;;;;;5051783;28;20021;-68
2021/07/23 08:25:12;;;;;;;16.40;10.15;;;;;;;;;;5051592;28;20025;-68
2021/07/23 08:27:38;;;;;;;18.50;11.55;;;;;;;;;;5050506;28;20025;-68
2021/07/23 08:30:05;;;;;;;26.92;19.33;;;;;;;;;;5050703;28;20022;-68
2021/07/23 08:32:36;;;;;;;21.55;12.57;;;;;;;;;;5050429;28;20424;-68
2021/07/23 08:35:02;;;;;;;17.50;10.68;;;;;;;;;;5073521;22;20045;-64
2021/07/23 08:37:28;;;;;;;17.77;9.98;;;;;;;;;;5049902;28;20029;-63
2021/07/23 08:39:54;;;;;;;17.73;10.45;;;;;;;;;;5050687;28;20032;-64
2021/07/23 08:42:25;;;;;;;18.20;11.35;;;;;;;;;;5049015;28;20066;-62
2021/07/23 08:44:51;;;;;;;20.10;12.07;;;;;;;;;;5065537;28;20055;-64
2021/07/23 08:47:17;;;;;;;17.45;11.02;;;;;;;;;;5052673;28;20016;-64
2021/07/23 08:49:43;;;;;;;16.73;11.32;;;;;;;;;;5052112;28;20472;-64
2021/07/23 08:52:09;;;;;;;16.13;10.77;;;;;;;;;;5035691;28;20032;-64
2021/07/23 08:54:35;;;;;;;17.40;11.43;;;;;;;;;;5032581;28;20040;-64
2021/07/23 08:57:03;;;;;;;19.25;10.65;;;;;;;;;;5050132;28;20025;-62
2021/07/23 08:59:31;;;;;;;18.52;12.00;;;;;;;;;;5050590;28;20045;-63
2021/07/23 09:02:01;;;;;;;16.20;10.70;;;;;;;;;;5032406;28;20025;-63
2021/07/23 09:04:35;;;;;;;17.63;11.60;;;;;;;;;;5050068;28;20100;-61
2021/07/23 09:07:13;;;;;;;20.45;12.20;;;;;;;;;;5052446;28;20021;-60
2021/07/23 09:09:39;;;;;;;19.23;11.98;;;;;;;;;;5054073;28;20017;-62
2021/07/23 09:12:05;;;;;;;17.60;11.25;;;;;;;;;;5035312;28;20124;-62
2021/07/23 09:14:31;;;;;;;16.10;11.30;;;;;;;;;;5036051;28;20028;-62
2021/07/23 09:16:57;;;;;;;18.25;11.90;;;;;;;;;;5053935;28;20121;-62
2021/07/23 09:19:23;;;;;;;16.85;11.35;;;;;;;;;;5053714;28;20029;-63
2021/07/23 09:21:57;;;;;;;17.33;11.32;;;;;;;;;;5053762;28;20078;-63
2021/07/23 09:24:23;;;;;;;18.98;11.75;;;;;;;;;;5053674;28;20024;-61
2021/07/23 09:26:50;;;;;;;16.50;11.10;;;;;;;;;;5053498;28;20071;-61
2021/07/23 09:29:16;;;;;;;16.95;10.95;;;;;;;;;;5053642;28;20476;-63
2021/07/23 09:32:01;;;;;;;17.83;12.02;;;;;;;;;;5054032;28;20090;-61
2021/07/23 09:34:31;;;;;;;16.23;11.20;;;;;;;;;;5035309;28;20570;-62
2021/07/23 09:37:26;;;;;;;20.83;11.95;;;;;;;;;;5053537;28;20029;-60
2021/07/23 09:39:56;;;;;;;17.40;11.50;;;;;;;;;;5023361;28;20036;-62
2021/07/23 09:42:22;;;;;;;19.05;11.88;;;;;;;;;;5035597;28;20035;-62
2021/07/23 09:44:48;;;;;;;17.70;11.52;;;;;;;;;;5035202;28;20384;-57
2021/07/23 09:47:26;;;;;;;18.65;11.82;;;;;;;;;;5035461;28;20029;-63
2021/07/23 09:49:52;;;;;;;16.58;10.98;;;;;;;;;;5035282;28;20056;-62
2021/07/23 09:52:18;;;;;;;19.25;11.25;;;;;;;;;;5034982;28;20029;-63
2021/07/23 09:54:44;;;;;;;17.33;11.35;;;;;;;;;;5052922;28;20499;-63
2021/07/23 09:57:11;;;;;;;17.52;12.13;;;;;;;;;;5052801;28;20078;-58
2021/07/23 09:59:54;;;;;;;18.05;11.05;;;;;;;;;;5035352;28;20025;-62
2021/07/23 10:02:24;;;;;;;17.02;11.93;;;;;;;;;;5053077;28;20027;-61
2021/07/23 10:05:09;;;;;;;20.08;11.73;;;;;;;;;;5052723;28;20511;-60
2021/07/23 10:07:40;;;;;;;16.33;11.93;;;;;;;;;;5035354;28;20507;-62
2021/07/23 10:10:10;;;;;;;17.25;12.35;;;;;;;;;;5034760;28;20047;-58
2021/07/23 10:12:36;;;;;;;19.95;12.20;;;;;;;;;;5052762;28;20039;-62
2021/07/23 10:15:03;;;;;;;16.52;12.00;;;;;;;;;;5035217;28;20380;-60
2021/07/23 10:17:29;;;;;;;17.58;12.57;;;;;;;;;;5034674;28;20500;-61
2021/07/23 10:19:57;;;;;;;16.42;12.02;;;;;;;;;;5034511;28;20339;-63
2021/07/23 10:22:24;;;;;;;17.02;12.20;;;;;;;;;;5052363;28;20477;-62
2021/07/23 10:24:50;;;;;;;16.05;11.85;;;;;;;;;;5052194;28;20032;-60
2021/07/23 10:27:16;;;;;;;18.52;12.90;;;22.40;95.90;;;;;;5034395;28;20033;-62
2021/07/23 10:29:52;;;;;;;19.23;13.13;;;23.30;99.90;;;;;;5052490;28;20044;-63
2021/07/23 10:32:24;;;;;;;18.38;12.98;;;23.10;99.90;;;;;;5052376;28;20427;-63
2021/07/23 10:34:51;;;;;;;18.10;12.05;;;23.20;99.90;;;;;;5052024;28;20111;-61
2021/07/23 10:37:42;;;;;;;16.75;12.75;;;23.10;99.90;;;;;;5051874;28;20035;-62
2021/07/23 10:40:08;;;;;;;17.05;12.52;;;;;;;;;;5031293;28;20091;-62
2021/07/23 10:42:35;;;;;;;18.77;13.07;;;;;;;;;;5052076;28;20040;-64
2021/07/23 10:45:08;;;;;;;17.40;12.48;;;22.50;99.90;;;;;;5052202;28;20033;-62
2021/07/23 10:47:39;;;;;;;17.23;12.75;;;22.90;99.90;;;;;;5034197;28;20104;-62
2021/07/23 10:50:07;;;;;;;16.75;12.10;;;23.00;99.90;;;;;;5051955;28;20067;-60
2021/07/23 10:52:38;;;;;;;17.35;12.45;;;23.00;99.90;;;;;;5052052;28;20021;-64
2021/07/23 10:55:16;;;;;;;17.52;12.40;;;;;;;;;;5051885;28;20044;-61
2021/07/23 10:57:42;;;;;;;17.33;12.32;;;;;;;;;;5051793;28;20461;-63
2021/07/23 11:00:08;;;;;;;17.13;12.15;;;;;;;;;;5052321;28;20104;-61
2021/07/23 11:02:34;;;;;;;21.50;13.05;;;;;;;;;;5052300;28;20065;-61
2021/07/23 11:05:27;;;;;;;16.98;12.38;;;;;;;;;;5034252;28;20453;-62
2021/07/23 11:07:57;;;;;;;17.58;12.18;;;;;;;;;;5048083;28;20041;-62
2021/07/23 11:10:23;;;;;;;16.85;12.95;;;;;;;;;;5052239;28;20051;-61
2021/07/23 11:12:49;;;;;;;16.85;12.40;;;;;;;;;;5051854;28;20021;-62
2021/07/23 11:15:15;;;;;;;17.77;12.30;;;;;;;;;;5051551;28;20029;-59
2021/07/23 11:17:55;;;;;;;19.55;12.95;;;;;;;;;;5033990;28;20504;-60
2021/07/23 11:20:25;;;;;;;16.77;11.75;;;;;;;;;;5051711;28;20036;-62
2021/07/23 11:22:52;;;;;;;17.58;12.80;;;;;;;;;;5051873;28;20389;-63
2021/07/23 11:25:19;;;;;;;16.00;11.65;;;;;;;;;;5033453;28;20044;-63
2021/07/23 11:27:45;;;;;;;17.58;12.48;;;;;;;;;;5051437;28;20025;-63
2021/07/23 11:30:13;;;;;;;16.80;12.23;;;;;;;;;;5033095;28;20039;-63
2021/07/23 11:32:49;;;;;;;16.90;13.00;;;;;;;;;;5051300;28;20025;-62
2021/07/23 11:35:15;;;;;;;18.05;12.90;;;;;;;;;;5051037;28;20037;-62
2021/07/23 11:37:41;;;;;;;15.43;11.60;;;;;;;;;;5051263;28;20130;-63
2021/07/23 11:40:08;;;;;;;16.27;12.10;;;;;;;;;;5051045;28;20100;-63
2021/07/23 11:42:42;;;;;;;18.60;12.52;;;;;;;;;;5051112;28;20381;-65
2021/07/23 11:45:13;;;;;;;17.60;12.55;;;;;;;;;;5050796;28;20028;-66
2021/07/23 11:47:46;;;;;;;17.52;12.30;;;;;;;;;;5051524;28;20100;-65
2021/07/23 11:50:24;;;;;;;17.33;13.10;;;;;;;;;;5032896;28;20079;-66
2021/07/23 11:52:58;;;;;;;17.80;13.00;;;;;;;;;;5033447;28;20033;-65
2021/07/23 11:55:24;;;;;;;17.10;12.88;;;;;;;;;;5033035;28;20627;-65
2021/07/23 11:57:50;;;;;;;16.38;12.80;;;;;;;;;;5050521;28;20107;-65
2021/07/23 12:00:22;;;;;;;16.60;13.20;;;;;;;;;;5051016;28;20033;-65
2021/07/23 12:02:50;;;;;;;17.55;13.30;;;22.90;99.90;;;;;;5050647;28;20025;-66
2021/07/23 12:05:17;;;;;;;17.25;13.43;;;32.10;92.20;;;;;;5050469;28;20021;-66
2021/07/23 12:07:45;;;;;;;15.88;12.70;;;32.00;91.40;;;;;;5050453;28;20025;-66
2021/07/23 12:10:16;;;;;;;16.13;13.05;;;32.80;93.10;;;;;;5050488;28;20509;-66
2021/07/23 12:12:42;;;;;;;16.52;13.35;;;33.10;92.00;;;;;;5050744;28;20453;-66
2021/07/23 12:15:12;;;;;;;16.58;13.23;;;33.80;90.40;;;;;;5050231;28;20028;-66
2021/07/23 12:17:43;;;;;;;16.35;13.13;;;33.80;90.90;;;;;;5050721;28;20017;-66
2021/07/23 12:20:09;;;;;;;18.10;13.50;;;34.80;90.20;;;;;;5050597;28;20033;-66
2021/07/23 12:22:35;;;;;;;18.02;13.20;;;34.00;86.80;;;;;;5050318;28;20089;-65
2021/07/23 12:25:18;;;;;;;16.95;13.02;;;35.30;88.00;;;;;;5050861;28;20080;-66
2021/07/23 12:27:44;;;;;;;17.00;13.25;;;34.30;86.10;;;;;;5050632;28;20501;-65
2021/07/23 12:30:12;;;;;;;17.05;13.38;;;34.60;86.70;;;;;;5032500;28;20029;-66
2021/07/23 12:32:38;;;;;;;17.15;13.55;;;33.60;83.10;;;;;;5032491;28;20021;-66
2021/07/23 12:35:04;;;;;;;16.85;12.88;;;33.60;85.00;;;;;;5050125;28;20449;-66
2021/07/23 12:37:30;;;;;;;17.67;13.57;;;33.80;83.70;;;;;;5032007;28;20504;-66
2021/07/23 12:40:01;;;;;;;16.83;13.30;;;32.70;83.20;;;;;;5050173;28;20060;-66
2021/07/23 12:42:28;;;;;;;17.60;13.40;;;33.50;83.40;;;;;;5061217;28;20121;-66
2021/07/23 12:44:54;;;;;;;17.80;13.60;;;33.90;82.80;;;;;;5063325;28;20017;-66
2021/07/23 12:47:23;;;;;;;17.17;13.45;;;35.20;82.90;;;;;;5052809;28;20174;-66
2021/07/23 12:49:54;;;;;;;17.23;13.18;;;35.90;82.40;;;;;;5063459;28;20019;-66
2021/07/23 12:52:20;;;;;;;15.63;12.90;;;36.00;81.00;;;;;;5063852;28;20020;-67
2021/07/23 12:55:04;;;;;;;17.13;12.98;;;34.80;80.70;;;;;;5063311;28;20041;-67
2021/07/23 12:57:29;;;;;;;16.75;13.02;;;35.20;79.80;;;;;;5064702;28;20067;-67
2021/07/23 13:00:19;;;;;;;17.25;13.77;;;35.10;80.00;;;;;;5062697;28;20128;-67
2021/07/23 13:02:45;;;;;;;16.55;13.10;;;34.90;76.60;;;;;;5066819;28;20384;-67
2021/07/23 13:05:11;;;;;;;17.25;13.20;;;34.40;77.10;;;;;;5074060;28;20158;-66
2021/07/23 13:07:37;;;;;;;16.80;13.55;;;34.90;78.30;;;;;;5056389;28;20517;-66
2021/07/23 13:10:03;;;;;;;16.23;12.95;;;33.80;76.10;;;;;;5074013;28;20112;-66
2021/07/23 13:12:29;;;;;;;17.33;13.98;;;35.50;78.40;;;;;;5074056;28;20021;-65
2021/07/23 13:14:55;;;;;;;16.02;13.10;;;36.10;78.70;;;;;;5056167;28;20082;-66
2021/07/23 13:17:21;;;;;;;16.75;12.57;;;36.60;78.20;;;;;;5055878;28;20442;-67
2021/07/23 13:19:46;;;;;;;18.73;13.55;;;36.50;74.70;;;;;;5074058;28;20032;-67
2021/07/23 13:22:14;;;;;;;16.38;13.23;;;36.00;74.40;;;;;;5073873;28;20388;-67
2021/07/23 13:24:40;;;;;;;;;;;34.80;74.30;;;;;;5065478;28;20021;-67
2021/07/23 13:27:05;;;;;;;17.15;13.15;;;35.40;74.90;;;;;;5060953;28;19915;-66
2021/07/23 13:29:31;;;;;;;16.67;13.88;;;33.60;74.40;;;;;;5045569;28;20357;-67
2021/07/23 13:31:57;;;;;;;18.17;13.35;;;35.10;75.40;;;;;;5063988;28;20516;-64
2021/07/23 13:34:23;;;;;;;17.70;13.02;;;36.20;75.40;;;;;;5043684;28;20036;-64
2021/07/23 13:37:00;;;;;;;16.20;12.77;;;35.90;74.60;;;;;;5063342;28;20519;-66
2021/07/23 13:39:40;;;;;;;18.02;13.10;;;36.10;74.20;;;;;;5067582;28;20128;-68
2021/07/23 13:42:09;;;;;;;16.92;12.90;;;35.40;74.50;;;;;;5073477;28;20107;-65
2021/07/23 13:44:35;;;;;;;16.17;12.80;;;36.50;73.90;;;;;;5073123;28;20492;-66
2021/07/23 13:47:04;;;;;;;17.63;12.45;;;36.00;77.00;;;;;;5054875;28;20028;-66
2021/07/23 13:49:30;;;;;;;20.27;12.45;;;37.20;74.20;;;;;;5073217;28;20096;-65
2021/07/23 13:51:55;;;;;;;17.30;12.88;;;37.30;72.40;;;;;;5072688;28;20423;-66
2021/07/23 13:54:21;;;;;;;15.65;12.60;;;36.70;72.40;;;;;;5073256;28;20031;-65
2021/07/23 13:56:46;;;;;;;16.45;12.90;;;36.20;73.30;;;;;;5072895;28;20033;-66
2021/07/23 13:59:12;;;;;;;16.83;12.85;;;35.70;73.90;;;;;;5073140;28;20036;-65